Flight Track Log - Related Links

Times and Time Zones

All times are in EDT time to prevent confusion due to time zone crossing. See the EJA370 flight status page for this flight to view local times or setup timezone preferences in your user account.

Time Position Orientation Groundspeed Altitude Reporting Facility
EDT Latitude Longitude Course Direction KTS MPH feet Rate Location/Type
Tue 09:59:39 AM 31.7842 -102.0811 75° East 300 345 11,200  Level Fort Worth Center
Tue 10:00:39 AM 31.7864 -101.9639 89° East 335 386 13,300 2,300 Climbing Fort Worth Center
Tue 10:01:39 AM 31.7881 -101.8564 89° East 342 394 15,800 2,750 Climbing Fort Worth Center
Tue 10:02:39 AM 31.7864 -101.7292 91° East 367 422 18,800 3,000 Climbing Fort Worth Center
Tue 10:03:39 AM 31.8092 -101.6081 77° East 372 428 21,800 2,800 Climbing Fort Worth Center
Tue 10:04:00 AM 32.1654 -101.4222 75° East  Level FlightAware Approximate
Tue 10:04:39 AM 31.8344 -101.4797 77° East 384 442 24,400  Level Fort Worth Center
Tue 10:05:39 AM 31.8717 -101.3592 70° East 391 450 27,000 2,100 Climbing Fort Worth Center
Tue 10:06:39 AM 31.9169 -101.2386 66° East 396 456 28,600 1,550 Climbing Fort Worth Center
Tue 10:07:39 AM 31.9647 -101.1061 67° East 414 476 30,100 1,550 Climbing Fort Worth Center
Tue 10:08:39 AM 32.0083 -100.9706 69° East 432 497 31,700 1,550 Climbing Fort Worth Center
Tue 10:09:39 AM 32.0539 -100.8400 68° East 432 497 33,200 1,500 Climbing Fort Worth Center
Tue 10:10:39 AM 32.1033 -100.7044 67° East 432 497 34,700 1,500 Climbing Fort Worth Center
Tue 10:11:39 AM 32.1467 -100.5664 70° East 437 503 36,200 1,500 Climbing Fort Worth Center
Tue 10:12:39 AM 32.1958 -100.4306 67° East 437 503 37,700 1,400 Climbing Fort Worth Center
Tue 10:13:39 AM 32.2408 -100.2969 68° East 437 503 39,000 1,250 Climbing Fort Worth Center
Tue 10:14:39 AM 32.2856 -100.1633 68° East 437 503 40,200 850 Climbing Fort Worth Center
Tue 10:15:39 AM 32.3281 -100.0317 69° East 432 497 40,700 400 Climbing Fort Worth Center
Tue 10:16:39 AM 32.3744 -99.8978 68° East 432 497 41,000 150 Climbing Fort Worth Center
Tue 10:17:39 AM 32.4211 -99.7564 69° East 432 497 41,000  Level Fort Worth Center
Tue 10:18:39 AM 32.4694 -99.6172 68° East 448 516 41,000  Level Fort Worth Center
Tue 10:19:39 AM 32.5225 -99.4533 69° East 467 537 41,000  Level Fort Worth Center
Tue 10:20:39 AM 32.5706 -99.3117 68° East 467 537 41,000  Level Fort Worth Center
Tue 10:21:39 AM 32.6186 -99.1694 68° East 467 537 41,000  Level Fort Worth Center
Tue 10:22:39 AM 32.6664 -99.0225 69° East 467 537 41,000  Level Fort Worth Center
Tue 10:23:39 AM 32.7142 -98.8800 68° East 467 537 41,000  Level Fort Worth Center
Tue 10:24:39 AM 32.7594 -98.7375 69° East 467 537 41,000  Level Fort Worth Center
Tue 10:25:39 AM 32.8069 -98.5925 69° East 467 537 41,000  Level Fort Worth Center
Tue 10:26:39 AM 32.8433 -98.4767 69° East 467 537 41,000  Level Fort Worth Center
Tue 10:27:39 AM 32.9011 -98.3067 68° East 461 531 41,000  Level Fort Worth Center
Tue 10:28:39 AM 32.9417 -98.1808 69° East 456 525 41,000  Level Fort Worth Center
Tue 10:29:39 AM 32.9906 -98.0228 70° East 461 531 41,000  Level Fort Worth Center
Tue 10:30:39 AM 33.0350 -97.8942 68° East 461 531 41,000  Level Fort Worth Center
Tue 10:31:39 AM 33.0856 -97.7333 69° East 466 536 41,000  Level Fort Worth Center
Tue 10:32:39 AM 33.1297 -97.5869 70° East 466 536 41,000  Level Fort Worth Center
Tue 10:33:39 AM 33.1717 -97.4531 69° East 466 536 41,000  Level Fort Worth Center
Tue 10:34:39 AM 33.2217 -97.2942 69° East 466 536 41,000  Level Fort Worth Center
Tue 10:35:39 AM 33.2611 -97.1675 70° East 466 536 41,000  Level Fort Worth Center
Tue 10:36:39 AM 33.3128 -97.0058 69° East 466 536 41,000  Level Fort Worth Center
Tue 10:37:39 AM 33.3542 -96.8764 69° East 466 536 41,000  Level Fort Worth Center
Tue 10:38:39 AM 33.4014 -96.7142 71° East 466 536 41,000  Level Fort Worth Center
Tue 10:39:39 AM 33.4442 -96.5669 71° East 471 542 41,000  Level Fort Worth Center
Tue 10:40:39 AM 33.4872 -96.4322 69° East 464 534 41,000  Level Fort Worth Center
Tue 10:41:39 AM 33.5336 -96.2722 71° East 464 534 41,000  Level Fort Worth Center
Tue 10:42:39 AM 33.5722 -96.1394 71° East 464 534 41,000  Level Fort Worth Center
Tue 10:43:39 AM 33.6225 -95.9767 70° East 470 541 41,000  Level Fort Worth Center
Tue 10:44:39 AM 33.6586 -95.8439 72° East 465 535 41,000  Level Fort Worth Center
Tue 10:45:39 AM 33.7025 -95.6958 70° East 465 535 41,000  Level Fort Worth Center
Tue 10:46:39 AM 33.7483 -95.5500 69° East 465 535 41,000  Level Fort Worth Center
Tue 10:47:39 AM 33.7900 -95.4067 71° East 465 535 41,000  Level Fort Worth Center
Tue 10:48:39 AM 33.8336 -95.2581 71° East 465 535 41,000  Level Fort Worth Center
Tue 10:49:39 AM 33.8747 -95.1094 72° East 465 535 41,000  Level Fort Worth Center
Tue 10:50:39 AM 33.9158 -94.9631 71° East 465 535 41,000  Level Fort Worth Center
Tue 10:51:39 AM 33.9589 -94.8217 70° East 465 535 41,000  Level Fort Worth Center
Tue 10:52:39 AM 34.0017 -94.6753 71° East 460 529 41,000  Level Fort Worth Center
Tue 10:53:39 AM 34.0422 -94.5311 71° East 465 535 41,000  Level Fort Worth Center
Tue 10:55:56 AM 34.1414 -94.1817 71° East 456 525 41,000  Level Memphis Center
Tue 10:56:56 AM 34.1814 -94.0328 72° East 456 525 41,000  Level Memphis Center
Tue 10:57:56 AM 34.2231 -93.8864 71° East 456 525 41,000  Level Memphis Center
Tue 10:58:56 AM 34.2600 -93.7572 71° East 456 525 41,000  Level Memphis Center
Tue 10:59:56 AM 34.2994 -93.6081 72° East 456 525 41,000  Level Memphis Center
Tue 11:00:56 AM 34.3306 -93.4533 76° East 456 525 41,000  Level Memphis Center
Tue 11:01:56 AM 34.3633 -93.3061 75° East 456 525 41,000  Level Memphis Center
Tue 11:03:00 AM 34.3935 -93.1559 76° East  Level FlightAware Approximate
Tue 11:03:56 AM 34.4244 -93.0033 76° East 451 519 41,000  Level Memphis Center
Tue 11:04:56 AM 34.4525 -92.8583 77° East 456 525 41,000  Level Memphis Center
Tue 11:05:56 AM 34.4844 -92.7081 75° East 451 519 41,000  Level Memphis Center
Tue 11:06:56 AM 34.5144 -92.5575 76° East 451 519 41,000  Level Memphis Center
Tue 11:07:56 AM 34.5442 -92.4044 77° East 451 519 41,000  Level Memphis Center
Tue 11:08:56 AM 34.5717 -92.2539 77° East 451 519 41,000  Level Memphis Center
Tue 11:09:56 AM 34.6050 -92.1031 75° East 451 519 41,000  Level Memphis Center
Tue 11:10:56 AM 34.6322 -91.9522 78° East 456 525 41,000  Level Memphis Center
Tue 11:11:56 AM 34.6653 -91.7989 75° East 456 525 41,000  Level Memphis Center
Tue 11:12:56 AM 34.7233 -91.6458 65° Northeast 451 519 41,000  Level Memphis Center
Tue 11:13:56 AM 34.7747 -91.5050 66° East 456 525 41,000  Level Memphis Center
Tue 11:14:56 AM 34.8303 -91.3614 65° Northeast 461 531 41,000  Level Memphis Center
Tue 11:15:56 AM 34.8814 -91.2203 66° East 454 522 41,000  Level Memphis Center
Tue 11:16:56 AM 34.9344 -91.0764 66° East 454 522 41,000  Level Memphis Center
Tue 11:17:56 AM 34.9769 -90.9300 70° East 459 528 41,000  Level Memphis Center
Tue 11:18:56 AM 34.9983 -90.7906 79° East 459 528 41,000  Level Memphis Center
Tue 11:19:56 AM 35.0194 -90.6361 80° East 459 528 41,000  Level Memphis Center
Tue 11:20:56 AM 35.0428 -90.4789 80° East 464 534 41,000  Level Memphis Center
Tue 11:21:56 AM 35.0678 -90.3267 79° East 464 534 41,000  Level Memphis Center
Tue 11:22:56 AM 35.0886 -90.1667 81° East 471 542 41,000  Level Memphis Center
Tue 11:23:56 AM 35.1153 -89.9967 79° East 466 536 41,000  Level Memphis Center
Tue 11:24:56 AM 35.1378 -89.8367 80° East 471 542 41,000  Level Memphis Center
Tue 11:25:56 AM 35.1619 -89.6789 79° East 471 542 41,000  Level Memphis Center
Tue 11:26:56 AM 35.1819 -89.5211 81° East 464 534 41,000  Level Memphis Center
Tue 11:27:56 AM 35.2017 -89.3686 81° East 464 534 41,000  Level Memphis Center
Tue 11:28:56 AM 35.2192 -89.2286 81° East 464 534 41,000  Level Memphis Center
Tue 11:29:56 AM 35.2406 -89.0706 81° East 464 534 41,000  Level Memphis Center
Tue 11:30:56 AM 35.2597 -88.9178 81° East 464 534 41,000  Level Memphis Center
Tue 11:31:56 AM 35.2808 -88.7622 81° East 470 541 41,000  Level Memphis Center
Tue 11:32:56 AM 35.3017 -88.6067 81° East 470 541 41,000  Level Memphis Center
Tue 11:33:56 AM 35.3219 -88.4383 82° East 465 535 41,000  Level Memphis Center
Tue 11:34:56 AM 35.3444 -88.2825 80° East 465 535 41,000  Level Memphis Center
Tue 11:35:56 AM 35.3647 -88.1242 81° East 465 535 41,000 -250 Level Memphis Center
Tue 11:36:56 AM 35.3847 -87.9656 81° East 465 535 40,500 -800 Descending Memphis Center
Tue 11:37:56 AM 35.4008 -87.8253 82° East 465 535 39,400 -1,200 Descending Memphis Center
Tue 11:38:56 AM 35.4203 -87.6667 81° East 465 535 38,100 -1,150 Descending Memphis Center
Tue 11:39:56 AM 35.4397 -87.5081 81° East 472 543 37,100 -550 Descending Memphis Center
Tue 11:40:56 AM 35.4569 -87.3519 82° East 465 535 37,000 -50 Descending Memphis Center
Tue 11:41:56 AM 35.4758 -87.1931 82° East 470 541 37,000 -250 Level Memphis Center
Tue 11:42:56 AM 35.4964 -87.0242 81° East 464 534 36,500 -800 Descending Memphis Center
Tue 11:43:56 AM 35.5131 -86.8703 82° East 464 534 35,400 -950 Descending Memphis Center
Tue 11:44:56 AM 35.5278 -86.7269 83° East 441 507 34,600 -1,250 Descending Memphis Center
Tue 11:45:56 AM 35.5442 -86.5808 82° East 431 496 32,900 -1,600 Descending Memphis Center
Tue 11:46:56 AM 35.5625 -86.4267 82° East 440 506 31,400 -1,250 Descending Memphis Center
Tue 11:47:56 AM 35.5825 -86.2753 81° East 448 516 30,400 -1,000 Descending Memphis Center
Tue 11:48:56 AM 35.5964 -86.1239 84° East 448 516 29,400 -1,200 Descending Memphis Center
Tue 11:49:56 AM 35.6122 -85.9825 82° East 438 504 28,000 -1,451 Descending Memphis Center
Tue 11:51:58 AM 35.6425 -85.6972 82° East 422 486 25,000 -1,451 Descending Atlanta Center
Tue 11:52:58 AM 35.6589 -85.5594 82° East 417 480 23,600 -1,400 Descending Atlanta Center
Tue 11:53:58 AM 35.6708 -85.4269 84° East 405 466 22,200 -1,300 Descending Atlanta Center
Tue 11:54:58 AM 35.6847 -85.2914 83° East 400 460 21,000 -850 Descending Atlanta Center
Tue 11:55:58 AM 35.7006 -85.1639 81° East 389 448 20,500 -1,008 Descending Atlanta Center
Tue 11:56:57 AM 35.7206 -85.0414 79° East 376 433 19,000 -1,550 Descending Atlanta Center
Tue 11:57:58 AM 35.7403 -84.9164 79° East 371 427 17,400 -1,488 Descending Atlanta Center
Tue 11:58:58 AM 35.7619 -84.7936 78° East 371 427 16,000 -1,550 Descending Atlanta Center
Tue 11:59:58 AM 35.7814 -84.6761 78° East 371 427 14,300 -1,600 Descending Atlanta Center
Tue 12:00:58 PM 35.7986 -84.5714 79° East 359 413 12,800 -1,550 Descending Atlanta Center
Tue 12:01:58 PM 35.8156 -84.4561 80° East 346 398 11,200 -1,650 Descending Atlanta Center
Tue 12:02:58 PM 35.8325 -84.3539 78° East 326 375 9,500 -1,900 Descending Atlanta Center
Tue 12:03:58 PM 35.8475 -84.2642 78° East 290 334 7,400 -2,050 Descending Atlanta Center
Tue 12:04:58 PM 35.8581 -84.1797 81° East 265 305 5,400 -1,750 Descending Atlanta Center
Tue 12:05:58 PM 35.8642 -84.0978 85° East 251 289 3,900 -1,350 Descending Atlanta Center
Tue 12:06:58 PM 35.8664 -84.0183 88° East 237 273 2,700 -1,109 Descending Atlanta Center
Tue 12:07:57 PM 35.8433 -83.9619 117° Southeast 186 214 1,700 -900 Descending Atlanta Center
Tue 12:08:58 PM 35.8164 -83.9850 215° Southwest 92 106 900 -787 Descending Atlanta Center

Login

Don't have an account? Register now (free) for customized features, flight alerts, and more!